createdAt,value
2023-04-16T00:02:13.003Z,69.15
2023-04-16T00:07:14.964Z,69.21
2023-04-16T00:12:17.127Z,69.62
2023-04-16T00:17:19.177Z,69.41
2023-04-16T00:22:21.024Z,69.15
2023-04-16T00:27:22.923Z,69.39
2023-04-16T00:32:24.955Z,69.77
2023-04-16T00:37:26.845Z,69.64
2023-04-16T00:42:28.839Z,69.73
2023-04-16T00:47:31.494Z,69.82
2023-04-16T00:52:33.555Z,69.78
2023-04-16T00:57:35.761Z,69.60
2023-04-16T01:02:37.721Z,70.32
2023-04-16T01:07:39.672Z,70.53
2023-04-16T01:12:41.512Z,70.11
2023-04-16T01:17:46.359Z,70.23
2023-04-16T01:22:48.254Z,70.03
2023-04-16T01:27:51.091Z,70.03
2023-04-16T01:32:53.026Z,69.93
2023-04-16T01:37:55.194Z,70.11
2023-04-16T01:42:57.028Z,69.66
2023-04-16T01:47:59.012Z,70.26
2023-04-16T01:53:02.343Z,70.19
2023-04-16T01:58:04.263Z,69.83
2023-04-16T02:03:06.367Z,70.11
2023-04-16T02:08:08.205Z,70.30
2023-04-16T02:13:10.058Z,70.36
2023-04-16T02:18:11.961Z,70.32
2023-04-16T02:23:15.309Z,70.71
2023-04-16T02:28:17.766Z,70.25
2023-04-16T02:33:20.848Z,70.21
2023-04-16T02:38:22.700Z,69.97
2023-04-16T02:43:24.708Z,69.97
2023-04-16T02:48:26.611Z,70.27
2023-04-16T02:53:28.455Z,70.24
2023-04-16T02:58:30.470Z,70.12
2023-04-16T03:03:32.329Z,70.03
2023-04-16T03:08:34.177Z,70.40
2023-04-16T03:13:36.486Z,70.39
2023-04-16T03:18:38.328Z,70.65
2023-04-16T03:23:40.230Z,70.45
2023-04-16T03:28:42.181Z,71.03
2023-04-16T03:33:44.056Z,70.55
2023-04-16T03:38:46.063Z,70.72
2023-04-16T03:43:47.900Z,70.82
2023-04-16T03:48:49.710Z,70.98
2023-04-16T03:53:51.841Z,70.81
2023-04-16T03:58:53.710Z,71.04
2023-04-16T04:03:55.666Z,71.16
2023-04-16T04:08:57.783Z,71.26
2023-04-16T04:13:59.876Z,71.09
2023-04-16T04:19:02.200Z,71.37
2023-04-16T04:24:04.164Z,70.70
2023-04-16T04:29:06.437Z,71.51
2023-04-16T04:34:08.200Z,71.53
2023-04-16T04:39:10.175Z,71.39
2023-04-16T04:44:12.147Z,71.22
2023-04-16T04:49:14.017Z,71.70
2023-04-16T04:54:15.932Z,71.43
2023-04-16T04:59:17.768Z,71.33
2023-04-16T05:04:19.784Z,70.98
2023-04-16T05:09:21.622Z,70.74
2023-04-16T05:14:23.594Z,71.29
2023-04-16T05:19:25.663Z,71.34
2023-04-16T05:24:27.553Z,71.07
2023-04-16T05:29:29.407Z,71.92
2023-04-16T05:34:31.362Z,71.46
2023-04-16T05:39:33.271Z,71.97
2023-04-16T05:44:35.173Z,71.23
2023-04-16T05:49:40.279Z,70.72
2023-04-16T05:54:42.350Z,71.14
2023-04-16T05:59:44.216Z,71.30
2023-04-16T06:04:46.552Z,71.21
2023-04-16T06:09:48.469Z,70.65
2023-04-16T06:14:50.409Z,71.00
2023-04-16T06:19:52.240Z,70.76
2023-04-16T06:24:54.301Z,71.61
2023-04-16T06:29:57.680Z,71.00
2023-04-16T06:34:59.689Z,71.26
2023-04-16T06:40:02.179Z,71.05
2023-04-16T06:45:04.569Z,71.54
2023-04-16T06:50:07.464Z,70.90
2023-04-16T06:55:10.217Z,71.06
2023-04-16T07:00:12.624Z,71.25
2023-04-16T07:05:14.561Z,71.63
2023-04-16T07:10:16.549Z,71.84
2023-04-16T07:15:18.479Z,71.47
2023-04-16T07:25:41.184Z,71.80
2023-04-16T07:30:49.655Z,70.80
2023-04-16T07:35:51.838Z,71.00
2023-04-16T07:40:54.033Z,70.97
2023-04-16T07:45:56.780Z,70.90
2023-04-16T07:51:02.813Z,71.03
2023-04-16T07:56:05.580Z,70.85
2023-04-16T08:01:08.615Z,70.86
2023-04-16T08:06:11.417Z,71.20
2023-04-16T08:11:15.726Z,70.88
2023-04-16T08:16:17.802Z,71.21
2023-04-16T08:21:20.177Z,70.96
2023-04-16T08:26:22.823Z,71.38
2023-04-16T08:31:24.934Z,71.42
2023-04-16T08:36:27.228Z,72.44
2023-04-16T08:41:32.985Z,72.30
2023-04-16T08:46:38.962Z,71.96
2023-04-16T08:51:46.302Z,72.42
2023-04-16T08:56:50.242Z,72.69
2023-04-16T09:01:54.147Z,71.61
2023-04-16T09:07:01.454Z,72.66
2023-04-16T09:12:04.147Z,73.06
2023-04-16T09:17:07.210Z,71.97
2023-04-16T09:22:09.237Z,72.21
2023-04-16T09:27:13.647Z,71.57
2023-04-16T09:32:16.062Z,72.07
2023-04-16T09:37:18.770Z,71.29
2023-04-16T09:42:29.305Z,71.08
2023-04-16T09:47:45.432Z,70.70
2023-04-16T09:52:54.380Z,70.85
2023-04-16T09:58:01.394Z,71.24
2023-04-16T10:03:06.065Z,71.39
2023-04-16T10:08:15.643Z,70.99
2023-04-16T10:13:19.486Z,74.23
2023-04-16T10:18:22.558Z,70.38
2023-04-16T10:23:24.651Z,67.22
2023-04-16T10:28:27.445Z,65.85
2023-04-16T10:33:32.323Z,64.48
2023-04-16T10:38:35.705Z,62.81
2023-04-16T10:43:47.113Z,62.44
2023-04-16T10:48:54.061Z,58.06
2023-04-16T10:54:20.773Z,63.18
2023-04-16T10:59:28.169Z,62.63
2023-04-16T11:04:45.762Z,65.55
2023-04-16T11:10:07.561Z,65.06
2023-04-16T11:15:11.672Z,65.46
2023-04-16T11:20:25.132Z,64.99
2023-04-16T11:25:31.923Z,66.79
2023-04-16T11:36:07.832Z,66.46
2023-04-16T11:41:36.686Z,65.96
2023-04-16T11:46:44.562Z,63.47
2023-04-16T11:57:41.231Z,65.81
2023-04-16T12:03:01.107Z,67.23
2023-04-16T12:08:11.621Z,66.73
2023-04-16T12:13:15.985Z,60.85
2023-04-16T12:18:19.651Z,58.54
2023-04-16T12:23:30.316Z,56.93
2023-04-16T12:28:34.565Z,55.19
2023-04-16T12:33:37.280Z,44.16
2023-04-16T12:38:39.484Z,50.40
2023-04-16T12:43:41.764Z,51.29
2023-04-16T12:48:43.993Z,50.75
2023-04-16T12:53:46.223Z,48.60
2023-04-16T12:58:52.348Z,47.83
2023-04-16T13:03:56.950Z,46.76
2023-04-16T13:08:59.640Z,45.51
2023-04-16T13:14:01.945Z,44.73
2023-04-16T13:19:04.269Z,43.99
2023-04-16T13:24:07.016Z,42.17
2023-04-16T13:29:09.925Z,41.00
2023-04-16T13:34:12.312Z,40.11
2023-04-16T13:39:16.062Z,33.77
2023-04-16T13:44:18.800Z,43.48
2023-04-16T13:49:21.172Z,46.47
2023-04-16T13:54:23.529Z,46.88
2023-04-16T13:59:26.834Z,48.05
2023-04-16T14:04:29.292Z,48.32
2023-04-16T14:09:32.013Z,47.49
2023-04-16T14:14:34.417Z,47.53
2023-04-16T14:19:36.824Z,48.14
2023-04-16T14:24:38.899Z,48.02
2023-04-16T14:29:41.865Z,48.15
2023-04-16T14:34:44.021Z,48.36
2023-04-16T14:39:46.187Z,48.04
2023-04-16T14:44:50.789Z,48.22
2023-04-16T14:49:54.182Z,48.12
2023-04-16T14:54:56.605Z,48.60
2023-04-16T15:00:16.146Z,48.79
2023-04-16T15:05:18.865Z,49.41
2023-04-16T15:10:21.874Z,48.56
2023-04-16T15:15:24.031Z,49.62
2023-04-16T15:20:26.467Z,49.21
2023-04-16T15:25:29.038Z,48.92
2023-04-16T15:30:35.408Z,49.55
2023-04-16T15:35:42.096Z,53.48
2023-04-16T15:40:51.229Z,55.78
2023-04-16T15:45:54.211Z,55.31
2023-04-16T15:50:57.406Z,53.32
2023-04-16T15:56:10.019Z,53.17
2023-04-16T16:01:17.108Z,53.10
2023-04-16T16:06:24.468Z,52.87
2023-04-16T16:11:28.902Z,53.29
2023-04-16T16:16:34.093Z,53.26
2023-04-16T16:21:37.063Z,53.38
2023-04-16T16:26:39.449Z,54.03
2023-04-16T16:31:42.060Z,54.00
2023-04-16T16:36:48.304Z,54.31
2023-04-16T16:41:53.284Z,54.70
2023-04-16T16:46:59.298Z,54.23
2023-04-16T16:52:02.447Z,58.45
2023-04-16T16:57:11.700Z,60.16
2023-04-16T17:02:17.111Z,61.31
2023-04-16T17:07:20.513Z,61.86
2023-04-16T17:12:29.329Z,63.13
2023-04-16T17:17:33.698Z,63.70
2023-04-16T17:22:41.021Z,61.09
2023-04-16T17:27:53.597Z,59.62
2023-04-16T17:32:58.168Z,59.21
2023-04-16T17:38:06.292Z,59.06
2023-04-16T17:44:11.591Z,59.32
2023-04-16T17:49:15.046Z,58.74
2023-04-16T17:54:17.764Z,58.76
2023-04-16T17:59:20.895Z,59.03
2023-04-16T18:04:23.790Z,58.53
2023-04-16T18:09:27.290Z,58.90
2023-04-16T18:14:31.250Z,58.82
2023-04-16T18:19:34.544Z,58.68
2023-04-16T18:24:37.539Z,59.12
2023-04-16T18:29:40.671Z,59.16
2023-04-16T18:34:43.790Z,58.46
2023-04-16T18:39:47.079Z,59.05
2023-04-16T18:44:59.347Z,58.58
2023-04-16T18:50:08.554Z,58.28
2023-04-16T18:55:12.380Z,59.03
2023-04-16T19:00:17.654Z,59.12
2023-04-16T19:05:26.186Z,58.47
2023-04-16T19:10:31.325Z,59.19
2023-04-16T19:15:39.335Z,59.32
2023-04-16T19:20:55.342Z,58.51
2023-04-16T19:26:04.118Z,58.81
2023-04-16T19:31:08.803Z,59.42
2023-04-16T19:36:11.666Z,58.76
2023-04-16T19:41:14.435Z,58.65
2023-04-16T19:46:18.565Z,58.47
2023-04-16T19:51:23.571Z,58.77
2023-04-16T19:56:28.198Z,59.21
2023-04-16T20:01:37.609Z,59.32
2023-04-16T20:06:57.042Z,59.41
2023-04-16T20:12:08.100Z,59.54
2023-04-16T20:17:10.908Z,59.29
2023-04-16T20:22:15.958Z,59.33
2023-04-16T20:27:21.075Z,59.38
2023-04-16T20:33:01.576Z,59.67
2023-04-16T20:38:05.687Z,59.89
2023-04-16T20:43:10.537Z,60.25
2023-04-16T20:48:17.482Z,60.30
2023-04-16T20:53:21.202Z,60.55
2023-04-16T20:58:24.190Z,60.77
2023-04-16T21:03:26.907Z,60.97
2023-04-16T21:08:29.681Z,60.84
2023-04-16T21:13:32.138Z,60.17
2023-04-16T21:18:35.628Z,60.84
2023-04-16T21:23:38.284Z,61.01
2023-04-16T21:28:40.705Z,60.20
2023-04-16T21:33:42.787Z,60.64
2023-04-16T21:38:44.839Z,60.83
2023-04-16T21:43:46.863Z,61.14
2023-04-16T21:48:50.229Z,60.95
2023-04-16T21:53:52.318Z,60.77
2023-04-16T21:58:54.727Z,61.05
2023-04-16T22:03:56.651Z,61.58
2023-04-16T22:08:59.269Z,61.20
2023-04-16T22:14:01.324Z,61.82
2023-04-16T22:19:03.474Z,61.64
2023-04-16T22:24:06.017Z,61.25
2023-04-16T22:29:08.012Z,61.77
2023-04-16T22:34:10.246Z,61.41
2023-04-16T22:39:12.380Z,61.54
2023-04-16T22:44:15.230Z,61.95
2023-04-16T22:49:17.376Z,62.13
2023-04-16T22:54:19.395Z,62.10
2023-04-16T22:59:21.685Z,62.05
2023-04-16T23:04:24.318Z,62.42
2023-04-16T23:09:26.364Z,62.19
2023-04-16T23:14:29.354Z,62.60
2023-04-16T23:19:31.989Z,62.57
2023-04-16T23:24:34.049Z,62.60
2023-04-16T23:29:36.089Z,62.51
2023-04-16T23:34:38.175Z,62.41
2023-04-16T23:39:40.342Z,63.04
2023-04-16T23:44:42.319Z,63.07
2023-04-16T23:49:44.260Z,62.92
2023-04-16T23:54:46.405Z,62.86
2023-04-16T23:59:48.367Z,63.29
